Wilmington, OH

9:22 PM EST on December 04, 2016 (GMT -0500)
2.2 N Wilmington | | Change Station

Elev 1053 ft 39.47 °N, 83.84 °W | Updated 6 minutes ago

Light Rain
Light Rain Mist
38.7 °F
Feels Like 34 °F
N
7.0
Wind Variable Wind from SSW
Gusts 7.0 mph

Today
High -- | Low -- °F
--% Chance of Precip.
Yesterday
High -- | Low -- °F
Precip. -- in
Pressure 29.92 in
Visibility 4.0 miles
Clouds Mostly Cloudy 500 ft
Overcast 1200 ft
Windchill 34 °F
Dew Point 37 °F
Humidity 95%
Rainfall 0.11 in
Snow Depth Not available.
7:39 AM 5:11 PM
Waxing Crescent, 27% visible
METAR KILN 050154Z AUTO 16008KT 4SM -RA BR BKN005 OVC012 03/03 A2986 RMK AO2 SLP131 P0003 T00330033
Pressure 29.92 in
Visibility 4.0 miles
Clouds Mostly Cloudy 500 ft
Overcast 1200 ft
Windchill 34 °F
Dew Point 37 °F
Humidity 95%
Rainfall 0.11 in
Snow Depth Not available.
7:39 AM 5:11 PM
Waxing Crescent, 27% visible
METAR KILN 050154Z AUTO 16008KT 4SM -RA BR BKN005 OVC012 03/03 A2986 RMK AO2 SLP131 P0003 T00330033

10-Day Weather Forecast

Almanac

Astronomy

Dec. 04, 2016 Rise Set
Actual Time
Civil Twilight
Nautical Twilight
Astronomical Twilight
Moon
Length of Visible Light
Length of Day
Tomorrow will be .
, % of the Moon is Illuminated

Today's Extremes

State Highs State Lows

Community

WunderPhotos

Upload Photos

1,955,746 photos uploaded!

WunderBlog® & News

Nearby

Air Quality

  Air Quality AQ Index Pollutant
Not available.

Snow Depth

Station Depth Elevation

Earthquake Activity

City Distance Mag. Time & Date
Minimum magnitude displayed is 2.5.

Coastal Water Temperatures

Place Temperature

Stations

Nearby Weather Stations

Station Location Temp. Windchill Dew Point Humidity Wind Precip. Elev Updated Type
                   

Watches & Warnings

There are currently no watches in effect.